Time;durP1;ratioP1;P1;durP2;ratioP2;P2;SDS_P1;SDS_P2;PMS_P1;PMS_P2;Temp;Humidity;BMP_temperature;BMP_pressure;BME280_temperature;BME280_humidity;BME280_pressure;Samples;Min_cycle;Max_cycle;Signal;HPM_P1;HPM_P2
2022/11/07 00:00:11;;;;;;;8.93;2.40;;;;;;;8.64;100.00;100659.88;5035429;28;20034;-73
2022/11/07 00:02:36;;;;;;;15.75;2.53;;;;;;;8.64;100.00;100670.50;5035228;28;20424;-74
2022/11/07 00:05:02;;;;;;;10.07;2.38;;;;;;;8.65;100.00;100680.97;5035283;28;20030;-76
2022/11/07 00:07:27;;;;;;;9.68;2.50;;;;;;;8.62;100.00;100675.09;5035208;28;20033;-75
2022/11/07 00:09:53;;;;;;;8.85;2.40;;;;;;;8.61;100.00;100681.38;5035268;28;20371;-74
2022/11/07 00:12:18;;;;;;;11.50;2.60;;;;;;;8.65;100.00;100675.66;5050257;28;20120;-76
2022/11/07 00:14:43;;;;;;;9.10;2.38;;;;;;;8.68;100.00;100676.38;5035268;28;20033;-75
2022/11/07 00:17:09;;;;;;;6.90;2.28;;;;;;;8.69;100.00;100681.56;5034043;28;20026;-75
2022/11/07 00:19:34;;;;;;;9.88;2.30;;;;;;;8.70;100.00;100677.09;5035055;28;20041;-75
2022/11/07 00:22:00;;;;;;;7.47;2.40;;;;;;;8.69;100.00;100660.34;5034992;28;20474;-74
2022/11/07 00:24:25;;;;;;;6.90;2.22;;;;;;;8.70;100.00;100666.47;5034986;28;20037;-75
2022/11/07 00:26:50;;;;;;;10.50;2.40;;;;;;;8.69;100.00;100675.41;5034964;28;20041;-74
2022/11/07 00:29:18;;;;;;;4.95;2.17;;;;;;;8.61;100.00;100673.41;5034834;28;20072;-74
2022/11/07 00:31:44;;;;;;;6.70;2.42;;;;;;;8.61;100.00;100679.56;5034828;28;20030;-74
2022/11/07 00:34:09;;;;;;;8.20;2.53;;;;;;;8.65;100.00;100677.47;5035328;28;20045;-74
2022/11/07 00:36:35;;;;;;;16.70;3.38;;;;;;;8.68;100.00;100679.88;5034786;28;20029;-74
2022/11/07 00:39:00;;;;;;;9.18;2.50;;;;;;;8.64;100.00;100679.31;5034151;28;20094;-74
2022/11/07 00:41:26;;;;;;;9.25;2.30;;;;;;;8.62;100.00;100681.22;5034210;28;20040;-75
2022/11/07 00:43:52;;;;;;;8.18;2.30;;;;;;;8.58;100.00;100690.44;5034382;28;20037;-74
2022/11/07 00:46:18;;;;;;;8.45;2.03;;;;;;;8.56;100.00;100692.38;5034589;28;20458;-74
2022/11/07 00:48:44;;;;;;;10.95;2.58;;;;;;;8.58;100.00;100690.44;5035178;28;20076;-74
2022/11/07 00:51:14;;;;;;;9.23;2.40;;;;;;;8.55;100.00;100685.38;5034485;28;20057;-75
2022/11/07 00:53:39;;;;;;;7.65;2.70;;;;;;;8.51;100.00;100691.06;5034365;28;20037;-75
2022/11/07 00:56:10;;;;;;;10.35;2.28;;;;;;;8.47;100.00;100685.19;5034333;28;20037;-75
2022/11/07 00:58:36;;;;;;;7.95;1.95;;;;;;;8.45;100.00;100697.75;5034564;28;20033;-75
2022/11/07 01:01:09;;;;;;;10.80;2.60;;;;;;;8.47;100.00;100709.88;5034279;28;20030;-74
2022/11/07 01:06:19;;;;;;;5.18;1.83;;;;;;;8.57;100.00;100719.72;5034049;28;20119;-75
2022/11/07 01:08:44;;;;;;;8.15;2.00;;;;;;;8.62;100.00;100710.41;5034115;28;20428;-75
2022/11/07 01:11:09;;;;;;;9.45;2.28;;;;;;;8.69;100.00;100705.44;5034231;28;20025;-75
2022/11/07 01:13:35;;;;;;;12.63;2.55;;;;;;;8.73;100.00;100717.47;5033958;28;20030;-75
2022/11/07 01:16:01;;;;;;;14.35;2.35;;;;;;;8.78;100.00;100709.13;5034696;28;20037;-74
2022/11/07 01:18:27;;;;;;;7.22;2.00;;;;;;;8.84;100.00;100732.47;5033895;28;20044;-74
2022/11/07 01:20:52;;;;;;;13.25;2.53;;;;;;;8.87;100.00;100729.56;5033611;28;20490;-74
2022/11/07 01:23:18;;;;;;;7.70;2.00;;;;;;;8.88;100.00;100717.13;5034125;28;20033;-74
2022/11/07 01:25:44;;;;;;;6.72;2.20;;;;;;;8.86;100.00;100733.19;5033552;28;20029;-74
2022/11/07 01:28:10;;;;;;;7.32;2.20;;;;;;;8.80;100.00;100718.63;5033848;28;20425;-74
2022/11/07 01:30:40;;;;;;;9.00;2.33;;;;;;;8.79;100.00;100726.69;5034014;28;20029;-74
2022/11/07 01:33:06;;;;;;;10.73;2.15;;;;;;;8.79;100.00;100732.88;5049051;28;20042;-74
2022/11/07 01:35:32;;;;;;;9.30;2.10;;;;;;;8.80;100.00;100734.53;5033244;28;20120;-74
2022/11/07 01:37:58;;;;;;;15.18;2.53;;;;;;;8.76;100.00;100724.31;5033974;28;20021;-74
2022/11/07 01:40:23;;;;;;;8.70;2.17;;;;;;;8.72;100.00;100736.16;5033632;28;20461;-73
2022/11/07 01:42:49;;;;;;;13.75;2.55;;;;;;;8.73;100.00;100743.16;5032012;28;20037;-74
2022/11/07 01:45:23;;;;;;;8.50;2.50;;;;;;;8.73;100.00;100719.28;5032369;28;20378;-73
2022/11/07 01:47:50;;;;;;;9.00;2.05;;;;;;;8.72;100.00;100739.66;5033796;28;20061;-73
2022/11/07 01:50:16;;;;;;;10.70;2.40;;;;;;;8.71;100.00;100737.13;5033436;28;20465;-74
2022/11/07 01:52:45;;;;;;;10.80;2.17;;;;;;;8.67;100.00;100739.19;5033393;28;20030;-74
2022/11/07 01:55:25;;;;;;;10.82;2.75;;;;;;;8.68;100.00;100740.06;5033331;28;20393;-74
2022/11/07 01:57:59;;;;;;;9.25;2.47;;;;;;;8.64;100.00;100739.44;5032774;28;20079;-74
2022/11/07 02:00:24;;;;;;;10.43;2.30;;;;;;;8.63;100.00;100740.44;5033618;28;20033;-74
2022/11/07 02:02:57;;;;;;;15.35;3.30;;;;;;;8.61;100.00;100745.88;5032102;28;20587;-74
2022/11/07 02:05:36;;;;;;;10.82;2.80;;;;;;;8.63;100.00;100735.13;5048221;28;20124;-74
2022/11/07 02:08:07;;;;;;;10.30;2.22;;;;;;;8.70;100.00;100736.28;5033861;28;20330;-74
2022/11/07 02:10:38;;;;;;;10.27;2.40;;;;;;;8.67;100.00;100735.72;5033943;28;20409;-74
2022/11/07 02:13:04;;;;;;;16.40;3.43;;;;;;;8.63;100.00;100735.13;5033373;28;20026;-74
2022/11/07 02:15:29;;;;;;;6.55;2.08;;;;;;;8.63;100.00;100743.91;5033123;28;20053;-74
2022/11/07 02:17:56;;;;;;;6.68;2.55;;;;;;;8.59;100.00;100755.75;5032216;28;20034;-74
2022/11/07 02:20:21;;;;;;;8.57;2.17;;;;;;;8.61;100.00;100750.31;5033094;28;20053;-73
2022/11/07 02:22:53;;;;;;;17.35;3.08;;;;;;;8.67;100.00;100747.16;5033170;28;20076;-74
2022/11/07 02:25:19;;;;;;;8.75;2.50;;;;;;;8.68;100.00;100751.50;5032642;28;20026;-74
2022/11/07 02:27:48;;;;;;;8.73;2.03;;;;;;;8.71;100.00;100745.09;5015363;28;20528;-74
2022/11/07 02:30:22;;;;;;;9.70;2.80;;;;;;;8.70;100.00;100743.41;5033542;28;20029;-74
2022/11/07 02:32:48;;;;;;;6.22;2.33;;;;;;;8.74;100.00;100758.94;5033048;28;20034;-74
2022/11/07 02:35:38;;;;;;;11.20;2.42;;;;;;;8.75;100.00;100754.47;5032919;28;20033;-74
2022/11/07 02:38:10;;;;;;;8.57;2.35;;;;;;;8.77;100.00;100758.66;5032729;28;20519;-74
2022/11/07 02:40:36;;;;;;;6.68;2.00;;;;;;;8.81;100.00;100753.97;5033684;28;20025;-73
2022/11/07 02:43:03;;;;;;;10.57;2.60;;;;;;;8.82;100.00;100756.50;5037224;28;20036;-73
2022/11/07 02:45:33;;;;;;;7.55;2.17;;;;;;;8.83;100.00;100774.06;5037459;28;20030;-74
2022/11/07 02:47:58;;;;;;;8.60;2.00;;;;;;;8.85;100.00;100755.38;5036771;28;20045;-74
2022/11/07 02:50:24;;;;;;;6.35;2.35;;;;;;;8.82;100.00;100756.50;5037138;28;20052;-74
2022/11/07 02:52:49;;;;;;;7.97;2.17;;;;;;;8.78;100.00;100747.09;5036926;28;20385;-73
2022/11/07 02:55:15;;;;;;;10.98;2.75;;;;;;;8.75;100.00;100755.31;5038261;28;20090;-75
2022/11/07 02:57:41;;;;;;;6.70;1.90;;;;;;;8.75;100.00;100762.44;5038536;28;20048;-74
2022/11/07 03:00:09;;;;;;;7.63;1.92;;;;;;;8.71;100.00;100763.66;5038474;28;20486;-74
2022/11/07 03:02:35;;;;;;;8.20;2.30;;;;;;;8.67;100.00;100764.88;5037687;28;20030;-74
2022/11/07 03:05:00;;;;;;;7.40;2.50;;;;;;;8.63;100.00;100756.34;5038174;28;20036;-74
2022/11/07 03:07:26;;;;;;;9.32;2.17;;;;;;;8.64;100.00;100753.56;5036927;28;20037;-74
2022/11/07 03:09:51;;;;;;;13.00;2.67;;;;;;;8.64;100.00;100756.22;5036474;28;20030;-74
2022/11/07 03:12:16;;;;;;;11.27;2.30;;;;;;;8.65;100.00;100754.41;5035296;28;20117;-74
2022/11/07 03:14:42;;;;;;;17.67;2.80;;;;;;;8.65;100.00;100752.59;5036104;28;20078;-74
2022/11/07 03:17:07;;;;;;;11.32;2.33;;;;;;;8.67;100.00;100756.94;5036564;28;20112;-74
2022/11/07 03:19:33;;;;;;;10.13;2.45;;;;;;;8.64;100.00;100750.06;5036316;28;20030;-74
2022/11/07 03:21:58;;;;;;;10.02;2.47;;;;;;;8.65;100.00;100752.59;5036123;28;20327;-75
2022/11/07 03:24:23;;;;;;;9.30;2.40;;;;;;;8.67;100.00;100765.72;5036132;28;20033;-74
2022/11/07 03:26:49;;;;;;;12.05;2.42;;;;;;;8.70;100.00;100746.06;5036584;28;20091;-74
2022/11/07 03:29:14;;;;;;;6.93;1.98;;;;;;;8.68;100.00;100754.16;5036230;28;20049;-75
2022/11/07 03:31:39;;;;;;;9.27;2.25;;;;;;;8.67;100.00;100755.09;5036454;28;20029;-75
2022/11/07 03:34:05;;;;;;;12.57;2.90;;;;;;;8.65;100.00;100751.75;5036128;28;20430;-74
2022/11/07 03:36:30;;;;;;;15.05;2.80;;;;;;;8.60;100.00;100746.84;5035699;28;20456;-75
2022/11/07 03:38:56;;;;;;;11.15;2.25;;;;;;;8.56;100.00;100749.88;5036387;28;20030;-74
2022/11/07 03:41:21;;;;;;;12.30;2.20;;;;;;;8.52;100.00;100759.06;5034619;28;20040;-75
2022/11/07 03:43:47;;;;;;;15.63;2.28;;;;;;;8.53;100.00;100764.22;5035846;28;20493;-74
2022/11/07 03:46:14;;;;;;;12.02;2.13;;;;;;;8.61;100.00;100745.00;5035656;28;20056;-75
2022/11/07 03:48:40;;;;;;;8.18;2.10;;;;;;;8.65;100.00;100743.78;5036442;28;20080;-75
2022/11/07 03:51:07;;;;;;;9.55;2.10;;;;;;;8.64;100.00;100753.56;5035503;28;20073;-79
2022/11/07 03:53:33;;;;;;;9.65;2.28;;;;;;;8.68;100.00;100761.28;5034210;28;20030;-78
2022/11/07 03:55:59;;;;;;;15.52;2.65;;;;;;;8.71;100.00;100761.00;5033913;28;20079;-78
2022/11/07 03:58:25;;;;;;;9.93;2.72;;;;;;;8.71;100.00;100761.00;5034958;28;20521;-78
2022/11/07 04:00:50;;;;;;;14.38;2.83;;;;;;;8.74;100.00;100748.31;5034921;28;20034;-78
2022/11/07 04:03:16;;;;;;;12.52;2.28;;;;;;;8.73;100.00;100746.66;5035273;28;20056;-78
2022/11/07 04:05:41;;;;;;;11.65;2.40;;;;;;;8.77;100.00;100757.84;5035149;28;20056;-75
2022/11/07 04:08:06;;;;;;;14.55;2.97;;;;;;;8.79;100.00;100763.84;5034909;28;20033;-78
2022/11/07 04:10:32;;;;;;;13.18;2.65;;;;;;;8.78;100.00;100762.19;5034679;28;20037;-77
2022/11/07 04:18:27;;;;;;;17.05;2.65;;;;;;;8.78;100.00;100759.53;5035103;28;20040;-79
2022/11/07 04:20:53;;;;;;;9.50;2.40;;;;;;;8.80;100.00;100765.53;5034563;28;20033;-78
2022/11/07 04:23:18;;;;;;;14.35;2.75;;;;;;;8.81;100.00;100757.44;5034614;28;20467;-79
2022/11/07 04:28:38;;;;;;;14.40;3.17;;;;;;;8.79;100.00;100756.75;5014915;28;20042;-79
2022/11/07 04:31:03;;;;;;;10.95;2.33;;;;;;;8.82;100.00;100756.50;5034377;28;20030;-78
2022/11/07 04:33:29;;;;;;;12.57;2.92;;;;;;;8.82;100.00;100767.09;5035079;28;20033;-77
2022/11/07 04:35:54;;;;;;;11.13;2.25;;;;;;;8.80;100.00;100761.06;5034943;28;20386;-78
2022/11/07 04:38:19;;;;;;;13.35;2.45;;;;;;;8.80;100.00;100762.88;5034412;28;20120;-78
2022/11/07 04:40:51;;;;;;;15.90;2.78;;;;;;;8.82;100.00;100766.25;5034470;28;20118;-78
2022/11/07 04:43:17;;;;;;;11.15;2.72;;;;;;;8.82;100.00;100768.88;5033361;28;20026;-79
2022/11/07 04:45:42;;;;;;;14.55;2.92;;;;;;;8.82;100.00;100759.13;5034283;28;20033;-78
2022/11/07 04:48:09;;;;;;;10.48;2.20;;;;;;;8.82;100.00;100763.59;5035178;28;20343;-78
2022/11/07 04:50:34;;;;;;;16.75;2.95;;;;;;;8.81;100.00;100767.22;5035012;28;20091;-78
2022/11/07 04:53:00;;;;;;;13.48;2.58;;;;;;;8.82;100.00;100769.75;5034267;28;20104;-79
2022/11/07 04:55:29;;;;;;;13.77;2.42;;;;;;;8.83;100.00;100768.75;5033885;28;20052;-76
2022/11/07 04:57:54;;;;;;;13.73;2.58;;;;;;;8.83;100.00;100757.31;5034033;28;20095;-77
2022/11/07 05:00:20;;;;;;;13.30;2.40;;;;;;;8.82;100.00;100764.44;5034372;28;20037;-77
2022/11/07 05:02:45;;;;;;;13.48;2.55;;;;;;;8.82;100.00;100759.13;5033975;28;20417;-78
2022/11/07 05:05:11;;;;;;;11.25;2.45;;;;;;;8.80;100.00;100750.44;5033303;28;20045;-78
2022/11/07 05:07:37;;;;;;;10.50;2.47;;;;;;;8.83;100.00;100763.44;5033804;28;20115;-77
2022/11/07 05:10:05;;;;;;;15.68;2.42;;;;;;;8.83;100.00;100767.94;5033564;28;20390;-78
2022/11/07 05:12:30;;;;;;;16.65;2.75;;;;;;;8.82;100.00;100760.94;5034291;28;20099;-77
2022/11/07 05:14:55;;;;;;;17.27;2.50;;;;;;;8.81;100.00;100769.88;5034214;28;20426;-76
2022/11/07 05:17:21;;;;;;;12.77;2.67;;;;;;;8.82;100.00;100774.19;5033722;28;20060;-76
2022/11/07 05:19:46;;;;;;;11.93;2.50;;;;;;;8.80;100.00;100762.88;5033451;28;20170;-77
2022/11/07 05:24:56;;;;;;;10.15;2.92;;;;;;;8.87;100.00;100771.16;5033476;28;20057;-79
2022/11/07 05:27:22;;;;;;;16.35;2.92;;;;;;;8.88;100.00;100770.19;5033610;28;20033;-77
2022/11/07 05:29:47;;;;;;;14.43;2.63;;;;;;;8.91;100.00;100769.94;5033616;28;20037;-78
2022/11/07 05:32:13;;;;;;;9.55;2.40;;;;;;;8.95;100.00;100772.19;5033567;28;20034;-76
2022/11/07 05:34:39;;;;;;;16.52;2.72;;;;;;;8.96;100.00;100775.72;5033734;28;20026;-76
2022/11/07 05:37:09;;;;;;;20.83;3.22;;;;;;;8.96;100.00;100781.00;5033881;28;20381;-78
2022/11/07 05:39:35;;;;;;;15.35;2.85;;;;;;;8.99;100.00;100778.94;5033936;28;20090;-78
2022/11/07 05:42:01;;;;;;;16.65;3.78;;;;;;;8.99;100.00;100778.94;5033332;28;20037;-79
2022/11/07 05:44:27;;;;;;;12.27;2.78;;;;;;;9.01;100.00;100781.44;5032991;28;20597;-77
2022/11/07 05:46:52;;;;;;;20.27;3.65;;;;;;;9.02;100.00;100780.50;5033228;28;20183;-76
2022/11/07 05:49:17;;;;;;;15.15;3.05;;;;;;;9.02;100.00;100775.19;5033715;28;20033;-78
2022/11/07 05:51:43;;;;;;;14.38;2.75;;;;;;;9.03;100.00;100784.81;5033328;28;20116;-78
2022/11/07 05:54:08;;;;;;;13.35;2.58;;;;;;;9.09;100.00;100794.94;5032828;28;20112;-77
2022/11/07 05:56:36;;;;;;;15.60;3.13;;;;;;;9.10;100.00;100783.31;5033151;28;20448;-80
2022/11/07 05:59:02;;;;;;;12.20;2.88;;;;;;;9.13;100.00;100793.66;5033157;28;20359;-78
2022/11/07 06:01:28;;;;;;;14.73;3.17;;;;;;;9.12;100.00;100789.34;5033152;28;20060;-79
2022/11/07 06:03:53;;;;;;;13.50;2.95;;;;;;;9.10;100.00;100793.94;5033110;28;20458;-78
2022/11/07 06:06:18;;;;;;;15.23;3.45;;;;;;;9.10;100.00;100793.09;5032963;28;20034;-77
2022/11/07 06:08:44;;;;;;;9.55;3.30;;;;;;;9.12;100.00;100785.84;5033050;28;20449;-78
2022/11/07 06:11:09;;;;;;;12.48;3.05;;;;;;;9.14;100.00;100789.22;5032965;28;20466;-80
2022/11/07 06:13:34;;;;;;;13.23;3.03;;;;;;;9.16;100.00;100792.56;5033229;28;20029;-79
2022/11/07 06:16:00;;;;;;;13.52;3.22;;;;;;;9.18;100.00;100787.97;5034737;28;20056;-79
2022/11/07 06:18:25;;;;;;;18.10;3.55;;;;;;;9.16;100.00;100788.09;5037521;28;20026;-78
2022/11/07 06:20:50;;;;;;;11.85;3.15;;;;;;;9.16;100.00;100792.56;5037091;28;20064;-78
2022/11/07 06:23:16;;;;;;;19.05;3.45;;;;;;;9.17;100.00;100773.03;5052464;28;20057;-78
2022/11/07 06:25:41;;;;;;;14.02;3.03;;;;;;;9.13;100.00;100785.72;5037571;28;20095;-78
2022/11/07 06:28:09;;;;;;;17.27;3.00;;;;;;;9.12;100.00;100775.22;5037191;28;20465;-78
2022/11/07 06:30:35;;;;;;;14.60;3.13;;;;;;;9.09;100.00;100789.63;5037392;28;20038;-77
2022/11/07 06:33:02;;;;;;;18.42;3.05;;;;;;;9.06;100.00;100784.56;5036773;28;20078;-79
2022/11/07 06:35:29;;;;;;;19.67;3.38;;;;;;;9.05;100.00;100788.19;5036920;28;20041;-78
2022/11/07 06:37:55;;;;;;;19.02;3.47;;;;;;;9.07;100.00;100782.75;5036641;28;20039;-76
2022/11/07 06:40:20;;;;;;;18.45;3.53;;;;;;;9.06;100.00;100795.19;5036766;28;20514;-78
2022/11/07 06:42:45;;;;;;;18.05;2.72;;;;;;;9.10;100.00;100790.44;5037322;28;20084;-78
2022/11/07 06:45:11;;;;;;;11.15;2.88;;;;;;;9.09;100.00;100786.09;5036721;28;20033;-78
2022/11/07 06:47:37;;;;;;;15.45;3.42;;;;;;;9.08;100.00;100784.44;5036220;28;20049;-78
2022/11/07 06:50:03;;;;;;;12.48;2.88;;;;;;;9.06;100.00;100787.22;5036143;28;20428;-82
2022/11/07 06:52:29;;;;;;;13.93;2.70;;;;;;;9.06;100.00;100786.38;5036413;28;20025;-78
2022/11/07 06:54:54;;;;;;;13.10;3.42;;;;;;;9.03;100.00;100791.94;5036531;28;20041;-79
2022/11/07 06:57:19;;;;;;;16.65;2.90;;;;;;;8.98;100.00;100790.50;5036689;28;20037;-78
2022/11/07 06:59:45;;;;;;;14.88;2.90;;;;;;;8.99;100.00;100792.19;5036893;28;20116;-78
2022/11/07 07:02:12;;;;;;;11.85;2.38;;;;;;;8.98;100.00;100790.50;5036351;28;20504;-77
2022/11/07 07:04:38;;;;;;;14.50;2.90;;;;;;;9.03;100.00;100800.72;5036349;28;20063;-78
2022/11/07 07:07:03;;;;;;;14.15;2.58;;;;;;;9.05;100.00;100803.28;5036300;28;20029;-78
2022/11/07 07:09:29;;;;;;;16.67;2.47;;;;;;;9.07;100.00;100801.31;5035902;28;20437;-79
2022/11/07 07:11:54;;;;;;;13.32;2.63;;;;;;;9.10;100.00;100806.38;5036107;28;20087;-78
2022/11/07 07:14:19;;;;;;;9.38;2.35;;;;;;;9.11;100.00;100806.25;5036011;28;20029;-78
2022/11/07 07:16:45;;;;;;;9.98;2.53;;;;;;;9.17;100.00;100813.69;5036117;28;20034;-79
2022/11/07 07:19:11;;;;;;;10.18;2.38;;;;;;;9.18;100.00;100818.03;5035732;28;20125;-78
2022/11/07 07:21:36;;;;;;;8.90;2.10;;;;;;;9.19;100.00;100818.84;5036037;28;20104;-77
2022/11/07 07:24:02;;;;;;;13.18;2.53;;;;;;;9.23;100.00;100838.03;5036053;28;20504;-79
2022/11/07 07:26:27;;;;;;;9.65;3.17;;;;;;;9.26;100.00;100825.34;5035806;28;20477;-79
2022/11/07 07:28:53;;;;;;;11.88;2.65;;;;;;;9.28;100.00;100828.69;5036128;28;20112;-79
2022/11/07 07:31:22;;;;;;;12.13;2.28;;;;;;;9.33;100.00;100838.91;5035879;28;20030;-80
2022/11/07 07:33:48;;;;;;;9.60;2.10;;;;;;;9.36;100.00;100836.03;5035978;28;20052;-81
2022/11/07 07:36:14;;;;;;;10.02;2.53;;;;;;;9.42;100.00;100838.16;5036279;28;20447;-80
2022/11/07 07:38:40;;;;;;;9.90;2.30;;;;;;;9.44;100.00;100846.81;5035686;28;20029;-79
2022/11/07 07:41:05;;;;;;;13.70;2.40;;;;;;;9.50;100.00;100851.59;5035613;28;20378;-81
2022/11/07 07:43:31;;;;;;;9.70;2.20;;;;;;;9.57;100.00;100851.06;5035509;28;20390;-78
2022/11/07 07:45:58;;;;;;;16.65;2.38;;;;;;;9.59;100.00;100859.75;5050986;28;20433;-78
2022/11/07 07:48:23;;;;;;;8.38;2.75;;;;;;;9.64;100.00;100861.06;5036270;28;20052;-77
2022/11/07 07:50:48;;;;;;;12.57;2.80;;;;;;;9.65;100.00;100862.72;5035495;28;20462;-78
2022/11/07 07:53:14;;;;;;;10.90;2.30;;;;;;;9.69;100.00;100856.16;5035331;28;20087;-78
2022/11/07 07:55:40;;;;;;;11.75;2.50;;;;;;;9.71;100.00;100859.53;5035434;28;20454;-80
2022/11/07 07:58:05;;;;;;;10.98;2.35;;;;;;;9.76;100.00;100863.59;5035536;28;20488;-80
2022/11/07 08:00:30;;;;;;;12.13;2.17;;;;;;;9.77;100.00;100866.13;5034041;28;20500;-78
2022/11/07 08:03:04;;;;;;;12.05;2.58;;;;;;;9.85;100.00;100876.09;5034569;28;20115;-79
2022/11/07 08:05:29;;;;;;;16.27;2.88;;;;;;;9.90;100.00;100884.53;5034984;28;20480;-82
2022/11/07 08:07:55;;;;;;;12.73;2.78;;;;;;;9.97;100.00;100874.19;5035335;28;20124;-81
2022/11/07 08:10:20;;;;;;;11.05;2.67;;;;;;;10.04;100.00;100883.31;5035124;28;20041;-80
2022/11/07 08:12:47;;;;;;;14.35;2.47;;;;;;;10.06;100.00;100876.88;5035293;28;20033;-79
2022/11/07 08:15:14;;;;;;;12.90;2.47;;;;;;;10.08;100.00;100892.69;5035065;28;20033;-79
2022/11/07 08:17:40;;;;;;;13.50;2.70;;;;;;;10.08;100.00;100895.34;5034270;28;20038;-81
2022/11/07 08:20:10;;;;;;;17.55;2.80;;;;;;;10.10;100.00;100890.72;5034741;28;20039;-81
2022/11/07 08:22:36;;;;;;;9.05;2.50;;;;;;;10.07;100.00;100880.38;5034341;28;20029;-80
2022/11/07 08:25:03;;;;;;;12.18;2.78;;;;;;;10.17;100.00;100883.06;5034831;28;20116;-82
2022/11/07 08:27:28;;;;;;;15.30;2.60;;;;;;;10.27;100.00;100888.41;5034746;28;20120;-79
2022/11/07 08:29:53;;;;;;;10.77;2.42;;;;;;;10.33;100.00;100890.53;5034945;28;20080;-80
2022/11/07 08:32:19;;;;;;;10.25;2.28;;;;;;;10.37;100.00;100894.63;5034097;28;20045;-81
2022/11/07 08:34:44;;;;;;;12.88;2.88;;;;;;;10.39;100.00;100888.19;5034206;28;20033;-81
2022/11/07 08:37:09;;;;;;;10.95;2.60;;;;;;;10.43;100.00;100896.75;5034333;28;20129;-80
2022/11/07 08:39:35;;;;;;;17.10;3.17;;;;;;;10.46;100.00;100899.13;5033589;28;20493;-82
2022/11/07 08:42:00;;;;;;;11.20;2.65;;;;;;;10.51;100.00;100904.03;5034248;28;20390;-81
2022/11/07 08:44:25;;;;;;;10.18;2.40;;;;;;;10.52;100.00;100911.03;5034152;28;20044;-81
2022/11/07 08:46:51;;;;;;;11.55;2.45;;;;;;;10.48;100.00;100923.78;5033778;28;20053;-80
2022/11/07 08:49:16;;;;;;;11.85;2.50;;;;;;;10.48;100.00;100918.47;5034294;28;20112;-80
2022/11/07 08:51:42;;;;;;;17.63;3.08;;;;;;;10.50;100.00;100913.00;5034227;28;20489;-77
2022/11/07 08:54:07;;;;;;;9.43;2.38;;;;;;;10.48;100.00;100925.59;5033915;28;20040;-83
2022/11/07 08:56:33;;;;;;;13.02;2.67;;;;;;;10.47;100.00;100922.09;5034149;28;20025;-82
2022/11/07 08:58:59;;;;;;;13.55;2.58;;;;;;;10.53;100.00;100934.84;5033774;28;20036;-80
2022/11/07 09:01:24;;;;;;;16.30;2.50;;;;;;;10.65;100.00;100940.06;5033737;28;20068;-81
2022/11/07 09:03:49;;;;;;;11.23;2.30;;;;;;;10.75;100.00;100939.09;5034056;28;20409;-82
2022/11/07 09:06:16;;;;;;;12.82;2.45;;;;;;;10.75;100.00;100936.44;5034059;28;20397;-82
2022/11/07 09:08:41;;;;;;;14.70;2.53;;;;;;;10.74;100.00;100949.88;5034036;28;20096;-82
2022/11/07 09:11:07;;;;;;;10.93;2.33;;;;;;;10.67;100.00;100933.59;5033716;28;20034;-82
2022/11/07 09:13:33;;;;;;;11.82;2.40;;;;;;;10.62;100.00;100943.84;5033929;28;20522;-84
2022/11/07 09:16:01;;;;;;;15.10;2.70;;;;;;;10.64;100.00;100933.06;5034277;28;20043;-83
2022/11/07 09:18:27;;;;;;;10.48;2.58;;;;;;;10.64;100.00;100938.38;5033470;28;20474;-81
2022/11/07 09:20:52;;;;;;;15.20;2.72;;;;;;;10.58;100.00;100947.75;5033844;28;20057;-80
2022/11/07 09:23:18;;;;;;;14.65;3.25;;;;;;;10.51;100.00;100941.28;5033558;28;20037;-80
2022/11/07 09:25:44;;;;;;;12.23;2.63;;;;;;;10.48;100.00;100949.53;5033641;28;20132;-79
2022/11/07 09:28:09;;;;;;;14.85;2.38;;;;;;;10.46;100.00;100948.84;5033773;28;20084;-80
2022/11/07 09:30:35;;;;;;;8.88;2.53;;;;;;;10.51;100.00;100943.94;5033820;28;20033;-80
2022/11/07 09:33:00;;;;;;;11.23;2.50;;;;;;;10.59;100.00;100952.91;5033405;28;20415;-80
2022/11/07 09:35:26;;;;;;;15.07;2.85;;;;;;;10.70;100.00;100954.66;5033895;28;20038;-79
2022/11/07 09:37:52;;;;;;;9.98;2.25;;;;;;;10.74;100.00;100955.19;5032967;28;20033;-81
2022/11/07 09:40:23;;;;;;;13.75;2.60;;;;;;;10.76;100.00;100950.56;5033426;28;20535;-80
2022/11/07 09:43:16;;;;;;;9.13;2.10;;;;;;;10.81;100.00;100963.47;5033111;28;20116;-81
2022/11/07 09:45:52;;;;;;;8.95;2.35;;;;;;;10.85;100.00;100970.22;5032976;28;20493;-82
2022/11/07 09:48:23;;;;;;;12.65;3.28;;;;;;;10.89;100.00;100975.13;5033760;28;20067;-77
2022/11/07 09:50:50;;;;;;;12.18;2.50;;;;;;;10.90;100.00;100962.66;5033191;28;20466;-78
2022/11/07 09:53:36;;;;;;;13.52;2.33;;;;;;;10.92;100.00;100966.84;5033092;28;20159;-79
2022/11/07 09:56:04;;;;;;;11.93;2.70;;;;;;;10.94;100.00;100975.56;5033110;28;20079;-78
2022/11/07 09:58:39;;;;;;;12.00;2.53;;;;;;;11.04;100.00;100972.88;5033052;28;20041;-77
2022/11/07 10:01:11;;;;;;;12.20;2.45;;;;;;;11.04;100.00;100978.22;5033267;28;20034;-78
2022/11/07 10:03:38;;;;;;;8.90;2.13;;;;;;;11.13;100.00;100978.38;5033670;28;20025;-78
2022/11/07 10:06:15;;;;;;;10.18;2.13;;;;;;;11.23;100.00;100973.91;5033268;28;20037;-80
2022/11/07 10:09:10;;;;;;;12.10;2.00;;;;;;;11.44;100.00;100971.09;5033640;28;20040;-80
2022/11/07 10:11:44;;;;;;;14.18;2.22;;;;;;;11.67;100.00;100979.59;5033297;28;20029;-77
2022/11/07 10:14:19;;;;;;;11.35;2.70;;;;;;;11.76;100.00;100983.22;5033148;28;20065;-80
2022/11/07 10:17:08;;;;;;;11.02;2.97;;;;;;;11.98;100.00;100971.44;5033065;28;20079;-80
2022/11/07 10:19:55;;;;;;;17.13;2.72;;;;;;;12.16;100.00;100974.16;5033253;28;20080;-76
2022/11/07 10:22:26;;;;;;;10.90;2.55;;;;;;;12.13;100.00;100974.47;5033348;28;20113;-79
2022/11/07 10:25:06;;;;;;;14.43;2.90;;;;;;;12.11;100.00;100971.13;5033368;28;20076;-79
2022/11/07 10:27:34;;;;;;;13.60;2.70;;;;;;;11.95;100.00;100982.38;5033065;28;20029;-79
2022/11/07 10:30:00;;;;;;;11.82;2.90;;;;;;;11.91;100.00;100979.16;5033185;28;20029;-82
2022/11/07 10:32:39;;;;;;;10.93;2.30;;;;;;;11.90;100.00;100982.78;5048235;28;20124;-81
2022/11/07 10:35:23;;;;;;;12.77;3.05;;;;;;;11.82;100.00;100987.97;5032811;28;20044;-82
2022/11/07 10:37:57;;;;;;;10.25;2.90;;;;;;;11.78;100.00;100987.44;5032276;28;20033;-82
2022/11/07 10:40:30;;;;;;;11.85;2.35;;;;;;;11.73;100.00;100995.00;5032831;28;20075;-80
2022/11/07 10:42:56;;;;;;;17.05;3.03;;;;;;;11.68;100.00;100999.94;5032798;28;20112;-81
2022/11/07 10:45:22;;;;;;;11.73;2.30;;;;;;;11.71;100.00;100998.81;5032870;28;20041;-82
2022/11/07 10:48:14;;;;;;;14.02;2.85;;;;;;;11.65;100.00;101001.06;5032677;28;20049;-84
2022/11/07 10:50:39;;;;;;;12.65;2.83;;;;;;;11.76;100.00;101007.22;5030607;28;20073;-81
2022/11/07 10:53:08;;;;;;;12.43;2.55;;;;;;;11.73;100.00;101002.19;5032980;28;20065;-82
2022/11/07 10:55:44;;;;;;;14.82;3.70;;;;;;;11.67;100.00;101005.41;5033895;28;20064;-82
2022/11/07 10:58:41;;;;;;;12.52;2.70;;;;;;;11.60;100.00;101005.16;5033403;28;20030;-79
2022/11/07 11:01:08;;;;;;;14.70;2.75;;;;;;;11.51;100.00;101013.97;5031304;28;20036;-81
2022/11/07 11:03:43;;;;;;;11.75;3.05;;;;;;;11.38;100.00;101009.78;5036399;28;20034;-80
2022/11/07 11:06:20;;;;;;;12.93;2.60;;;;;;;11.28;100.00;101004.44;5036997;28;20037;-80
2022/11/07 11:08:48;;;;;;;16.45;2.70;;;;;;;11.28;100.00;101001.78;5036275;28;20054;-80
2022/11/07 11:11:16;;;;;;;13.77;2.45;;;;;;;11.37;100.00;101000.09;5036753;28;20038;-82
2022/11/07 11:13:41;;;;;;;13.57;2.60;;;;;;;11.42;100.00;100997.00;5036156;28;20029;-81
2022/11/07 11:16:26;;;;;;;9.27;2.40;;;;;;;11.48;100.00;100991.13;5036372;28;20029;-80
2022/11/07 11:18:54;;;;;;;16.60;2.95;;;;;;;11.50;100.00;100993.66;5036340;28;20033;-81
2022/11/07 11:21:21;;;;;;;13.57;2.60;;;;;;;11.46;100.00;100983.28;5034470;28;20026;-81
2022/11/07 11:23:47;;;;;;;9.80;2.63;;;;;;;11.44;100.00;100985.22;5051091;28;20030;-81
2022/11/07 11:26:35;;;;;;;17.70;3.00;;;;;;;11.43;100.00;100982.72;5036134;28;20045;-81
2022/11/07 11:29:08;;;;;;;12.68;2.65;;;;;;;11.46;100.00;100990.41;5035915;28;20033;-80
2022/11/07 11:31:43;;;;;;;17.10;2.88;;;;;;;11.45;100.00;100994.09;5035896;28;20108;-81